createdAt,value
2023-09-08T00:02:27.284Z,12.53
2023-09-08T00:07:30.632Z,13.10
2023-09-08T00:12:33.605Z,12.67
2023-09-08T00:17:38.060Z,14.02
2023-09-08T00:22:41.433Z,13.20
2023-09-08T00:27:44.535Z,12.20
2023-09-08T00:32:47.620Z,11.57
2023-09-08T00:37:50.836Z,12.40
2023-09-08T00:42:54.025Z,12.57
2023-09-08T00:47:57.434Z,12.70
2023-09-08T00:53:00.696Z,11.70
2023-09-08T00:58:05.090Z,12.20
2023-09-08T01:03:08.170Z,12.23
2023-09-08T01:08:11.958Z,12.60
2023-09-08T01:13:15.228Z,11.30
2023-09-08T01:18:18.301Z,12.60
2023-09-08T01:23:40.020Z,11.03
2023-09-08T01:28:43.712Z,10.70
2023-09-08T01:33:47.245Z,10.70
2023-09-08T01:38:50.516Z,10.57
2023-09-08T01:43:53.849Z,10.33
2023-09-08T01:48:56.970Z,10.70
2023-09-08T01:53:59.978Z,9.73
2023-09-08T01:59:03.181Z,9.10
2023-09-08T02:04:06.637Z,9.90
2023-09-08T02:09:11.673Z,10.30
2023-09-08T02:14:14.898Z,9.67
2023-09-08T02:19:18.335Z,8.83
2023-09-08T02:24:21.711Z,9.23
2023-09-08T02:29:25.134Z,8.73
2023-09-08T02:34:28.289Z,8.53
2023-09-08T02:39:31.987Z,10.03
2023-09-08T02:44:35.346Z,10.90
2023-09-08T02:49:38.839Z,9.90
2023-09-08T02:54:42.104Z,10.07
2023-09-08T02:59:51.219Z,8.77
2023-09-08T03:04:54.790Z,9.67
2023-09-08T03:09:57.909Z,9.43
2023-09-08T03:15:03.245Z,9.40
2023-09-08T03:20:09.123Z,10.90
2023-09-08T03:25:12.294Z,10.77
2023-09-08T03:30:15.580Z,10.57
2023-09-08T03:35:18.737Z,10.23
2023-09-08T03:40:22.012Z,9.40
2023-09-08T03:45:25.447Z,8.97
2023-09-08T03:50:28.805Z,9.73
2023-09-08T03:55:32.148Z,8.87
2023-09-08T04:00:35.938Z,8.77
2023-09-08T04:05:39.073Z,8.83
2023-09-08T04:10:42.370Z,8.50
2023-09-08T04:15:45.435Z,9.27
2023-09-08T04:20:48.897Z,8.60
2023-09-08T04:25:52.486Z,8.70
2023-09-08T04:30:56.128Z,7.57
2023-09-08T04:35:59.094Z,7.90
2023-09-08T04:41:02.203Z,9.23
2023-09-08T04:46:05.561Z,8.73
2023-09-08T04:51:08.633Z,8.67
2023-09-08T04:56:12.027Z,8.33
2023-09-08T05:01:15.364Z,8.27
2023-09-08T05:06:18.612Z,8.17
2023-09-08T05:11:22.108Z,8.73
2023-09-08T05:16:38.502Z,8.10
2023-09-08T05:21:42.718Z,9.80
2023-09-08T05:26:46.064Z,10.27
2023-09-08T05:31:49.388Z,10.30
2023-09-08T05:36:52.843Z,11.07
2023-09-08T05:41:56.035Z,10.47
2023-09-08T05:46:59.588Z,12.23
2023-09-08T05:52:02.847Z,10.53
2023-09-08T05:57:07.687Z,10.83
2023-09-08T06:02:12.432Z,12.00
2023-09-08T06:07:16.320Z,10.97
2023-09-08T06:12:20.352Z,12.80
2023-09-08T06:17:23.714Z,12.60
2023-09-08T06:22:26.994Z,12.07
2023-09-08T06:27:30.241Z,11.45
2023-09-08T06:32:33.513Z,13.40
2023-09-08T06:37:40.748Z,13.73
2023-09-08T06:42:44.205Z,13.73
2023-09-08T06:47:47.729Z,13.20
2023-09-08T06:52:51.883Z,14.18
2023-09-08T06:57:55.255Z,13.50
2023-09-08T07:02:58.743Z,13.18
2023-09-08T07:08:02.250Z,12.68
2023-09-08T07:13:05.824Z,12.88
2023-09-08T07:18:09.065Z,12.45
2023-09-08T07:24:09.789Z,12.38
2023-09-08T07:29:14.008Z,12.15
2023-09-08T07:34:17.934Z,12.88
2023-09-08T07:39:27.476Z,10.68
2023-09-08T07:44:31.226Z,10.82
2023-09-08T07:49:37.997Z,9.68
2023-09-08T07:54:41.382Z,10.15
2023-09-08T07:59:44.702Z,8.88
2023-09-08T08:04:48.010Z,8.60
2023-09-08T08:09:51.156Z,8.23
2023-09-08T08:14:54.804Z,8.77
2023-09-08T08:20:08.252Z,8.63
2023-09-08T08:25:12.820Z,8.80
2023-09-08T08:30:16.601Z,7.45
2023-09-08T08:35:19.593Z,7.13
2023-09-08T08:40:23.052Z,7.10
2023-09-08T08:45:32.524Z,7.25
2023-09-08T08:50:38.111Z,7.05
2023-09-08T08:55:42.536Z,7.38
2023-09-08T09:00:47.167Z,6.28
2023-09-08T09:05:50.954Z,7.38
2023-09-08T09:10:54.361Z,6.60
2023-09-08T09:16:04.930Z,6.72
2023-09-08T09:21:08.316Z,5.90
2023-09-08T09:26:13.947Z,5.78
2023-09-08T09:31:17.443Z,5.30
2023-09-08T09:36:23.782Z,4.95
2023-09-08T09:41:31.706Z,4.35
2023-09-08T09:46:35.526Z,4.88
2023-09-08T09:51:44.028Z,5.68
2023-09-08T09:56:52.066Z,4.10
2023-09-08T10:01:56.255Z,4.55
2023-09-08T10:07:00.411Z,4.82
2023-09-08T10:12:09.706Z,4.20
2023-09-08T10:17:22.291Z,4.47
2023-09-08T10:22:31.422Z,4.30
2023-09-08T10:27:35.280Z,5.63
2023-09-08T10:32:39.444Z,4.32
2023-09-08T10:37:42.456Z,4.53
2023-09-08T10:42:46.048Z,4.45
2023-09-08T10:47:49.312Z,4.88
2023-09-08T10:53:18.593Z,5.35
2023-09-08T10:58:40.299Z,4.88
2023-09-08T11:03:43.646Z,4.57
2023-09-08T11:08:47.802Z,4.47
2023-09-08T11:13:51.422Z,4.45
2023-09-08T11:18:54.553Z,4.70
2023-09-08T11:23:57.890Z,4.25
2023-09-08T11:29:01.014Z,4.35
2023-09-08T11:34:06.795Z,4.28
2023-09-08T11:39:11.737Z,3.83
2023-09-08T11:44:19.968Z,4.32
2023-09-08T11:49:24.856Z,4.20
2023-09-08T11:54:28.827Z,5.00
2023-09-08T11:59:35.147Z,4.30
2023-09-08T12:04:38.577Z,5.07
2023-09-08T12:09:42.042Z,4.68
2023-09-08T12:14:48.110Z,4.43
2023-09-08T12:19:52.210Z,4.65
2023-09-08T12:24:55.445Z,4.13
2023-09-08T12:30:01.704Z,4.50
2023-09-08T12:35:05.961Z,4.68
2023-09-08T12:40:11.356Z,4.88
2023-09-08T12:45:14.547Z,4.13
2023-09-08T12:50:18.025Z,4.00
2023-09-08T12:55:22.004Z,4.20
2023-09-08T13:00:26.311Z,4.65
2023-09-08T13:05:30.079Z,4.53
2023-09-08T13:10:33.297Z,4.40
2023-09-08T13:15:36.659Z,4.13
2023-09-08T13:20:40.394Z,4.10
2023-09-08T13:25:43.711Z,4.63
2023-09-08T13:30:47.072Z,4.55
2023-09-08T13:35:50.288Z,4.57
2023-09-08T13:40:54.389Z,4.32
2023-09-08T13:45:57.600Z,4.25
2023-09-08T13:51:06.777Z,4.45
2023-09-08T13:56:13.357Z,4.72
2023-09-08T14:01:20.140Z,4.40
2023-09-08T14:06:30.914Z,4.60
2023-09-08T14:12:09.225Z,4.40
2023-09-08T14:16:59.066Z,4.65
2023-09-08T14:22:02.982Z,4.47
2023-09-08T14:27:06.521Z,4.40
2023-09-08T14:32:09.572Z,4.18
2023-09-08T14:37:12.850Z,4.47
2023-09-08T14:42:16.775Z,4.15
2023-09-08T14:47:20.171Z,4.22
2023-09-08T14:52:23.476Z,4.10
2023-09-08T14:57:27.399Z,4.40
2023-09-08T15:02:30.944Z,4.68
2023-09-08T15:07:34.098Z,5.65
2023-09-08T15:12:37.293Z,4.03
2023-09-08T15:17:40.435Z,4.05
2023-09-08T15:22:43.709Z,4.20
2023-09-08T15:27:46.954Z,4.25
2023-09-08T15:32:50.370Z,4.00
2023-09-08T15:37:54.039Z,4.20
2023-09-08T15:42:57.424Z,4.32
2023-09-08T15:48:01.353Z,4.43
2023-09-08T15:53:04.834Z,4.75
2023-09-08T15:58:09.037Z,4.45
2023-09-08T16:03:12.296Z,4.80
2023-09-08T16:08:17.160Z,4.25
2023-09-08T16:13:21.875Z,4.47
2023-09-08T16:18:26.584Z,4.20
2023-09-08T16:23:29.848Z,4.25
2023-09-08T16:28:33.215Z,5.55
2023-09-08T16:33:37.038Z,4.72
2023-09-08T16:38:40.476Z,4.65
2023-09-08T16:43:44.027Z,4.72
2023-09-08T16:48:47.155Z,5.28
2023-09-08T16:53:50.456Z,6.28
2023-09-08T16:58:53.358Z,4.63
2023-09-08T17:03:56.522Z,5.25
2023-09-08T17:08:59.486Z,5.72
2023-09-08T17:14:02.790Z,5.70
2023-09-08T17:19:05.964Z,5.88
2023-09-08T17:24:09.551Z,6.13
2023-09-08T17:29:13.002Z,7.20
2023-09-08T17:34:23.603Z,7.35
2023-09-08T17:39:27.523Z,6.85
2023-09-08T17:44:30.791Z,7.20
2023-09-08T17:49:36.521Z,7.72
2023-09-08T17:54:39.837Z,7.35
2023-09-08T17:59:43.167Z,7.70
2023-09-08T18:04:47.106Z,8.82
2023-09-08T18:09:50.394Z,8.55
2023-09-08T18:14:54.970Z,8.93
2023-09-08T18:19:59.933Z,9.30
2023-09-08T18:25:03.428Z,8.85
2023-09-08T18:30:08.631Z,8.48
2023-09-08T18:35:11.801Z,8.00
2023-09-08T18:40:15.234Z,7.75
2023-09-08T18:45:19.346Z,8.20
2023-09-08T18:50:22.787Z,8.25
2023-09-08T18:55:26.347Z,8.70
2023-09-08T19:00:31.256Z,11.57
2023-09-08T19:05:35.071Z,9.43
2023-09-08T19:10:37.985Z,9.85
2023-09-08T19:15:41.420Z,9.85
2023-09-08T19:20:45.807Z,9.00
2023-09-08T19:25:49.095Z,9.43
2023-09-08T19:30:52.735Z,9.38
2023-09-08T19:35:57.003Z,8.80
2023-09-08T19:41:06.222Z,10.13
2023-09-08T19:46:09.729Z,9.07
2023-09-08T19:51:13.792Z,11.27
2023-09-08T19:56:17.117Z,13.10
2023-09-08T20:01:20.904Z,11.80
2023-09-08T20:06:24.271Z,13.57
2023-09-08T20:11:28.021Z,9.82
2023-09-08T20:16:31.342Z,12.73
2023-09-08T20:21:36.890Z,11.43
2023-09-08T20:26:40.268Z,11.63
2023-09-08T20:31:43.350Z,11.10
2023-09-08T20:36:46.782Z,10.50
2023-09-08T20:41:50.777Z,12.48
2023-09-08T20:46:53.864Z,12.35
2023-09-08T20:51:58.264Z,12.05
2023-09-08T20:57:05.142Z,10.85
2023-09-08T21:02:09.465Z,10.48
2023-09-08T21:07:12.763Z,10.10
2023-09-08T21:12:15.939Z,9.73
2023-09-08T21:17:19.396Z,9.73
2023-09-08T21:22:22.554Z,11.32
2023-09-08T21:27:25.524Z,12.98
2023-09-08T21:32:28.705Z,11.73
2023-09-08T21:37:31.733Z,12.75
2023-09-08T21:42:34.951Z,13.20
2023-09-08T21:47:38.528Z,13.82
2023-09-08T21:52:42.058Z,14.63
2023-09-08T21:57:46.206Z,13.18
2023-09-08T22:02:49.473Z,13.38
2023-09-08T22:07:52.789Z,13.15
2023-09-08T22:12:56.276Z,12.60
2023-09-08T22:17:59.538Z,12.38
2023-09-08T22:23:02.672Z,11.68
2023-09-08T22:28:06.157Z,12.95
2023-09-08T22:33:09.577Z,12.32
2023-09-08T22:38:13.230Z,12.07
2023-09-08T22:43:16.259Z,14.18
2023-09-08T22:48:20.716Z,14.33
2023-09-08T22:53:24.302Z,18.10
2023-09-08T22:58:37.330Z,16.53
2023-09-08T23:03:41.397Z,16.93
2023-09-08T23:08:44.855Z,17.10
2023-09-08T23:13:47.870Z,16.00
2023-09-08T23:18:50.974Z,17.77
2023-09-08T23:23:55.505Z,17.20
2023-09-08T23:28:58.506Z,16.73
2023-09-08T23:34:01.494Z,17.60
2023-09-08T23:39:05.029Z,18.70
2023-09-08T23:44:07.988Z,19.40
2023-09-08T23:49:11.310Z,17.03
2023-09-08T23:54:14.194Z,17.37
2023-09-08T23:59:17.512Z,18.30
